Time;durP1;ratioP1;P1;durP2;ratioP2;P2;SDS_P1;SDS_P2;PMS_P1;PMS_P2;Temp;Humidity;BMP_temperature;BMP_pressure;BME280_temperature;BME280_humidity;BME280_pressure;Samples;Min_cycle;Max_cycle;Signal;HPM_P1;HPM_P2
2023/10/24 00:02:57;;;;;;;35.00;23.30;;;;;;;7.10;100.00;99971.27;129860;1260;114643;-58
2023/10/24 00:05:59;;;;;;;33.40;22.30;;;;;;;7.08;100.00;99969.77;129940;1259;114702;-59
2023/10/24 00:09:04;;;;;;;36.60;23.50;;;;;;;7.05;100.00;99971.46;129735;1270;114758;-59
2023/10/24 00:12:06;;;;;;;42.10;23.30;;;;;;;7.02;100.00;99963.08;129762;1259;115003;-59
2023/10/24 00:15:09;;;;;;;38.10;23.50;;;;;;;6.99;100.00;99951.48;129795;1259;114734;-59
2023/10/24 00:18:13;;;;;;;42.20;23.60;;;;;;;7.00;100.00;99953.91;129832;1257;114716;-59
2023/10/24 00:21:15;;;;;;;49.00;22.50;;;;;;;7.03;100.00;99956.84;129847;1259;114697;-59
2023/10/24 00:24:17;;;;;;;42.70;22.40;;;;;;;7.06;100.00;99959.20;130170;1256;114754;-58
2023/10/24 00:27:19;;;;;;;37.50;22.20;;;;;;;7.09;100.00;99962.08;129840;1259;114781;-59
2023/10/24 00:30:21;;;;;;;36.60;21.40;;;;;;;7.11;100.00;99961.13;129972;1261;114772;-58
2023/10/24 00:33:23;;;;;;;42.70;22.00;;;;;;;7.14;100.00;99951.04;129994;1256;114732;-58
2023/10/24 00:36:25;;;;;;;35.30;21.10;;;;;;;7.20;100.00;99941.59;129795;1278;128870;-58
2023/10/24 00:39:27;;;;;;;35.40;20.90;;;;;;;7.25;100.00;99946.33;129741;1259;114780;-58
2023/10/24 00:42:30;;;;;;;30.60;20.50;;;;;;;7.32;100.00;99946.55;129642;1256;115069;-58
2023/10/24 00:45:34;;;;;;;34.10;20.20;;;;;;;7.39;100.00;99947.18;129523;1256;114836;-59
2023/10/24 00:48:37;;;;;;;37.00;21.40;;;;;;;7.46;100.00;99941.02;129810;1259;114709;-59
2023/10/24 00:51:40;;;;;;;36.80;22.40;;;;;;;7.53;100.00;99937.17;129729;1259;114725;-58
2023/10/24 00:54:42;;;;;;;38.10;21.70;;;;;;;7.59;100.00;99928.37;129817;1259;114707;-59
2023/10/24 00:57:44;;;;;;;28.90;20.10;;;;;;;7.66;100.00;99931.98;129697;1256;114834;-60
2023/10/24 01:00:46;;;;;;;38.70;22.60;;;;;;;7.72;100.00;99927.45;129795;1259;115386;-58
2023/10/24 01:03:49;;;;;;;43.00;24.00;;;;;;;7.78;100.00;99924.89;129760;1259;114790;-59
2023/10/24 01:06:51;;;;;;;37.70;22.90;;;;;;;7.84;100.00;99908.80;129839;1259;114716;-59
2023/10/24 01:09:53;;;;;;;33.50;19.50;;;;;;;7.89;100.00;99897.55;129812;1256;115086;-61
2023/10/24 01:12:55;;;;;;;34.90;20.40;;;;;;;7.93;100.00;99895.80;129738;1275;114792;-61
2023/10/24 01:15:57;;;;;;;43.00;20.60;;;;;;;7.97;100.00;99897.90;129751;1259;114719;-62
2023/10/24 01:18:59;;;;;;;38.50;21.40;;;;;;;8.02;100.00;99893.43;129822;1257;114724;-59
2023/10/24 01:22:02;;;;;;;34.70;20.20;;;;;;;8.05;100.00;99892.55;129874;1259;115243;-59
2023/10/24 01:25:11;;;;;;;33.80;19.10;;;;;;;8.10;100.00;99897.15;129848;1259;114781;-59
2023/10/24 01:28:13;;;;;;;41.10;20.30;;;;;;;8.14;100.00;99896.59;129857;1257;114732;-59
2023/10/24 01:31:15;;;;;;;43.40;20.50;;;;;;;8.18;100.00;99887.89;129967;1259;115408;-59
2023/10/24 01:34:17;;;;;;;34.40;20.40;;;;;;;8.21;100.00;99889.70;130047;1255;114865;-59
2023/10/24 01:37:19;;;;;;;34.30;19.60;;;;;;;8.24;100.00;99891.89;129701;1273;127688;-59
2023/10/24 01:40:22;;;;;;;33.20;19.80;;;;;;;8.27;100.00;99887.85;129822;1278;115241;-59
2023/10/24 01:43:24;;;;;;;37.10;21.10;;;;;;;8.29;100.00;99877.77;129767;1258;114722;-59
2023/10/24 01:46:26;;;;;;;39.40;20.60;;;;;;;8.29;100.00;99878.66;129553;1257;115387;-59
2023/10/24 01:49:28;;;;;;;35.30;18.80;;;;;;;8.30;100.00;99869.17;129773;1259;115212;-59
2023/10/24 01:52:31;;;;;;;31.50;18.60;;;;;;;8.32;100.00;99861.12;129895;1278;114690;-59
2023/10/24 01:55:33;;;;;;;34.70;21.00;;;;;;;8.32;100.00;99857.87;129584;1259;114863;-60
2023/10/24 01:58:36;;;;;;;29.30;20.50;;;;;;;8.33;100.00;99858.34;129825;1259;115233;-59
2023/10/24 02:01:38;;;;;;;32.00;18.90;;;;;;;8.35;100.00;99858.24;129755;1261;114688;-58
2023/10/24 02:04:41;;;;;;;32.70;18.90;;;;;;;8.37;100.00;99861.36;129871;1278;114765;-59
2023/10/24 02:07:43;;;;;;;35.60;17.90;;;;;;;8.41;100.00;99856.61;129977;1259;114687;-58
2023/10/24 02:10:45;;;;;;;27.10;15.90;;;;;;;8.42;100.00;99850.48;129777;1278;114684;-59
2023/10/24 02:13:47;;;;;;;26.60;17.10;;;;;;;8.42;100.00;99856.87;129774;1257;114834;-59
2023/10/24 02:16:49;;;;;;;29.40;16.70;;;;;;;8.44;100.00;99853.23;129650;1259;114771;-59
2023/10/24 02:19:53;;;;;;;22.90;16.20;;;;;;;8.47;100.00;99845.44;129862;1259;114705;-59
2023/10/24 02:22:55;;;;;;;29.50;17.70;;;;;;;8.48;100.00;99839.52;129796;1269;115288;-60
2023/10/24 02:25:57;;;;;;;29.40;17.10;;;;;;;8.51;100.00;99840.30;129870;1256;114692;-58
2023/10/24 02:28:59;;;;;;;27.30;16.80;;;;;;;8.54;100.00;99854.02;129722;1259;114735;-59
2023/10/24 02:32:02;;;;;;;31.40;16.30;;;;;;;8.57;100.00;99857.61;129824;1278;115294;-58
2023/10/24 02:35:05;;;;;;;27.80;17.00;;;;;;;8.61;100.00;99854.41;129865;1259;114675;-58
2023/10/24 02:38:07;;;;;;;30.40;16.30;;;;;;;8.62;100.00;99854.53;129841;1259;114717;-58
2023/10/24 02:41:09;;;;;;;29.50;16.50;;;;;;;8.64;100.00;99857.46;129777;1259;128844;-58
2023/10/24 02:44:11;;;;;;;31.10;17.00;;;;;;;8.67;100.00;99862.15;129860;1259;114899;-59
2023/10/24 02:47:13;;;;;;;30.10;16.10;;;;;;;8.71;100.00;99861.23;129713;1268;114735;-59
2023/10/24 02:50:15;;;;;;;24.40;15.80;;;;;;;8.73;100.00;99858.98;129936;1259;115092;-58
2023/10/24 02:53:20;;;;;;;30.20;15.70;;;;;;;8.75;100.00;99848.18;129618;1260;114881;-58
2023/10/24 02:56:23;;;;;;;30.30;17.10;;;;;;;8.78;100.00;99845.36;129903;1271;114706;-58
2023/10/24 02:59:25;;;;;;;22.90;14.50;;;;;;;8.80;100.00;99851.15;129742;1256;114845;-59
2023/10/24 03:02:27;;;;;;;30.00;18.50;;;;;;;8.80;100.00;99854.17;129995;1259;115352;-58
2023/10/24 03:05:29;;;;;;;29.40;15.80;;;;;;;8.80;100.00;99855.23;129807;1278;115233;-58
2023/10/24 03:08:31;;;;;;;29.00;16.00;;;;;;;8.82;100.00;99865.48;129760;1270;115145;-60
2023/10/24 03:11:34;;;;;;;30.60;16.90;;;;;;;8.85;100.00;99842.92;129896;1259;114735;-58
2023/10/24 03:14:36;;;;;;;25.50;15.10;;;;;;;8.85;100.00;99823.30;129594;1259;114780;-58
2023/10/24 03:17:39;;;;;;;31.10;16.90;;;;;;;8.84;100.00;99816.60;129703;1259;115069;-59
2023/10/24 03:20:41;;;;;;;25.60;16.00;;;;;;;8.83;100.00;99823.05;129664;1278;115371;-58
2023/10/24 03:23:44;;;;;;;26.50;15.70;;;;;;;8.83;100.00;99839.09;129938;1257;115176;-58
2023/10/24 03:26:46;;;;;;;22.50;14.90;;;;;;;8.81;100.00;99840.23;129719;1278;114828;-58
2023/10/24 03:29:49;;;;;;;28.60;16.90;;;;;;;8.81;100.00;99838.45;127479;1259;3244504;-58
2023/10/24 03:32:51;;;;;;;26.60;16.70;;;;;;;8.83;100.00;99837.86;129778;1260;115402;-58
2023/10/24 03:35:53;;;;;;;23.10;15.50;;;;;;;8.85;100.00;99831.69;130065;1256;115173;-58
2023/10/24 03:38:56;;;;;;;28.20;16.20;;;;;;;8.87;100.00;99821.63;129623;1259;114920;-59
2023/10/24 03:41:58;;;;;;;23.20;15.50;;;;;;;8.86;100.00;99806.70;129878;1259;114819;-58
2023/10/24 03:45:00;;;;;;;26.10;14.90;;;;;;;8.86;100.00;99793.19;129866;1270;114626;-59
2023/10/24 03:48:02;;;;;;;27.50;16.00;;;;;;;8.86;100.00;99796.21;129731;1259;115243;-58
2023/10/24 03:51:04;;;;;;;32.50;16.40;;;;;;;8.86;100.00;99798.52;129796;1260;114804;-58
2023/10/24 03:54:06;;;;;;;26.70;16.30;;;;;;;8.87;100.00;99814.13;129973;1259;114775;-58
2023/10/24 03:57:08;;;;;;;31.60;17.60;;;;;;;8.90;100.00;99826.64;129764;1260;114902;-59
2023/10/24 04:00:12;;;;;;;24.90;16.50;;;;;;;8.91;100.00;99839.93;129675;1272;114898;-58
2023/10/24 04:03:14;;;;;;;27.70;16.40;;;;;;;8.93;100.00;99843.61;129750;1278;115074;-58
2023/10/24 04:06:17;;;;;;;28.40;16.60;;;;;;;8.94;100.00;99842.77;129869;1259;114780;-58
2023/10/24 04:09:18;;;;;;;27.60;16.20;;;;;;;8.96;100.00;99842.20;129973;1259;114713;-60
2023/10/24 04:12:21;;;;;;;29.90;17.20;;;;;;;8.97;100.00;99839.11;129678;1257;114843;-58
2023/10/24 04:15:23;;;;;;;26.10;16.90;;;;;;;8.98;100.00;99835.15;129821;1278;115385;-58
2023/10/24 04:18:27;;;;;;;26.80;16.40;;;;;;;8.97;100.00;99835.02;129774;1278;114865;-58
2023/10/24 04:21:29;;;;;;;31.40;16.40;;;;;;;8.97;100.00;99819.48;129731;1257;114763;-58
2023/10/24 04:24:31;;;;;;;30.50;16.60;;;;;;;8.99;100.00;99804.99;129761;1256;114780;-58
2023/10/24 04:27:33;;;;;;;29.10;17.30;;;;;;;9.00;100.00;99808.35;129641;1263;115183;-59
2023/10/24 04:30:38;;;;;;;29.40;15.80;;;;;;;9.00;100.00;99814.02;129906;1259;114785;-58
2023/10/24 04:33:41;;;;;;;;;;;;;;;9.02;100.00;99815.73;130039;1259;114798;-59
2023/10/24 04:36:43;;;;;;;30.30;15.70;;;;;;;9.04;100.00;99811.30;129842;1257;114758;-58
2023/10/24 04:39:45;;;;;;;29.30;16.40;;;;;;;9.05;100.00;99797.38;129766;1256;114769;-58
2023/10/24 04:42:50;;;;;;;27.50;16.00;;;;;;;9.06;100.00;99788.23;129741;1278;130001;-59
2023/10/24 04:45:52;;;;;;;21.50;12.30;;;;;;;9.07;100.00;99779.48;129597;1259;116723;-59
2023/10/24 04:48:54;;;;;;;32.20;16.90;;;;;;;9.07;100.00;99771.11;129750;1257;114710;-58
2023/10/24 04:51:56;;;;;;;32.00;16.60;;;;;;;9.06;100.00;99760.27;129879;1269;114798;-59
2023/10/24 04:54:58;;;;;;;25.10;16.10;;;;;;;9.05;100.00;99767.98;129543;1265;114868;-59
2023/10/24 04:58:01;;;;;;;34.00;16.30;;;;;;;9.03;100.00;99769.16;129850;1271;114889;-58
2023/10/24 05:01:03;;;;;;;25.80;15.30;;;;;;;9.02;100.00;99770.29;129725;1278;114808;-58
2023/10/24 05:04:06;;;;;;;27.00;15.90;;;;;;;9.00;100.00;99777.86;130061;1270;114768;-58
2023/10/24 05:07:08;;;;;;;26.70;16.30;;;;;;;9.00;100.00;99785.00;129608;1276;115290;-58
2023/10/24 05:10:11;;;;;;;26.80;15.60;;;;;;;9.01;100.00;99776.24;129683;1259;114755;-59
2023/10/24 05:13:13;;;;;;;33.20;16.70;;;;;;;9.02;100.00;99756.57;130004;1259;115143;-59
2023/10/24 05:16:15;;;;;;;26.00;15.80;;;;;;;9.03;100.00;99753.86;129813;1257;114707;-58
2023/10/24 05:19:17;;;;;;;31.40;15.90;;;;;;;9.02;100.00;99750.67;129893;1259;114798;-58
2023/10/24 05:22:19;;;;;;;31.50;16.60;;;;;;;9.03;100.00;99743.01;129771;1278;114723;-58
2023/10/24 05:25:22;;;;;;;29.50;16.70;;;;;;;9.03;100.00;99739.77;129765;1258;114753;-58
2023/10/24 05:28:24;;;;;;;35.90;17.40;;;;;;;9.04;100.00;99742.94;129800;1262;115340;-58
2023/10/24 05:31:26;;;;;;;31.40;17.20;;;;;;;9.05;100.00;99742.70;129795;1260;114787;-58
2023/10/24 05:34:29;;;;;;;32.70;16.80;;;;;;;9.05;100.00;99738.23;129894;1259;114786;-58
2023/10/24 05:37:31;;;;;;;28.90;16.70;;;;;;;9.05;100.00;99733.79;129657;1262;114768;-58
2023/10/24 05:40:33;;;;;;;28.70;15.80;;;;;;;9.04;100.00;99727.81;129800;1278;114878;-58
2023/10/24 05:43:37;;;;;;;29.90;17.30;;;;;;;9.02;100.00;99731.95;129844;1260;114702;-57
2023/10/24 05:46:39;;;;;;;31.40;16.80;;;;;;;9.01;100.00;99737.70;129629;1272;128838;-58
2023/10/24 05:49:42;;;;;;;28.50;17.00;;;;;;;8.99;100.00;99739.44;129737;1278;115185;-58
2023/10/24 05:52:44;;;;;;;36.10;18.20;;;;;;;9.00;100.00;99740.29;129871;1257;115349;-58
2023/10/24 05:55:46;;;;;;;31.20;17.50;;;;;;;9.02;100.00;99735.71;129819;1273;114625;-59
2023/10/24 05:58:48;;;;;;;34.10;19.00;;;;;;;9.03;100.00;99734.80;129770;1278;115103;-58
2023/10/24 06:01:50;;;;;;;35.80;18.30;;;;;;;9.02;100.00;99747.10;129797;1259;114967;-58
2023/10/24 06:04:54;;;;;;;35.40;18.60;;;;;;;9.02;100.00;99753.69;129640;1259;114711;-58
2023/10/24 06:07:56;;;;;;;29.80;16.80;;;;;;;9.05;100.00;99770.33;129671;1256;128548;-58
2023/10/24 06:11:00;;;;;;;32.30;16.10;;;;;;;9.06;100.00;99773.27;129570;1259;114716;-58
2023/10/24 06:14:03;;;;;;;30.40;17.20;;;;;;;9.10;100.00;99768.27;129744;1259;115426;-58
2023/10/24 06:17:05;;;;;;;30.60;16.10;;;;;;;9.15;100.00;99773.89;129691;1259;114692;-58
2023/10/24 06:20:08;;;;;;;29.30;16.90;;;;;;;9.21;100.00;99772.48;129713;1260;114703;-59
2023/10/24 06:23:11;;;;;;;27.90;18.00;;;;;;;9.29;100.00;99775.30;129726;1261;115701;-58
2023/10/24 06:26:18;;;;;;;32.70;18.50;;;;;;;9.38;100.00;99766.29;129465;1267;128405;-59
2023/10/24 06:29:20;;;;;;;30.90;16.60;;;;;;;9.45;100.00;99755.54;129704;1278;115253;-58
2023/10/24 06:32:22;;;;;;;30.30;17.50;;;;;;;9.52;100.00;99755.17;129594;1259;114706;-58
2023/10/24 06:35:24;;;;;;;41.70;17.30;;;;;;;9.61;100.00;99751.13;129689;1259;114729;-60
2023/10/24 06:38:26;;;;;;;37.40;17.10;;;;;;;9.73;100.00;99748.19;129744;1256;114721;-58
2023/10/24 06:41:29;;;;;;;26.60;15.70;;;;;;;9.81;100.00;99749.85;129760;1256;114780;-58
2023/10/24 06:44:31;;;;;;;32.10;15.60;;;;;;;9.87;100.00;99758.80;129761;1279;114829;-58
2023/10/24 06:47:34;;;;;;;31.00;15.20;;;;;;;9.93;100.00;99769.73;129711;1257;114835;-58
2023/10/24 06:50:36;;;;;;;30.10;16.00;;;;;;;10.02;100.00;99769.02;129523;1263;115259;-59
2023/10/24 06:53:38;;;;;;;32.70;15.70;;;;;;;10.13;100.00;99765.05;129619;1269;115249;-58
2023/10/24 06:56:40;;;;;;;30.40;15.20;;;;;;;10.23;100.00;99768.41;129677;1264;114834;-58
2023/10/24 06:59:43;;;;;;;30.60;14.60;;;;;;;10.37;100.00;99758.54;129814;1278;114852;-58
2023/10/24 07:02:45;;;;;;;25.80;15.00;;;;;;;10.50;100.00;99742.79;129572;1265;114818;-58
2023/10/24 07:05:52;;;;;;;27.40;14.60;;;;;;;10.64;100.00;99741.46;129868;1262;114718;-59
2023/10/24 07:08:54;;;;;;;25.50;14.90;;;;;;;10.77;100.00;99740.14;129589;1256;115369;-58
2023/10/24 07:11:56;;;;;;;33.20;15.30;;;;;;;10.90;100.00;99734.03;129728;1259;114810;-58
2023/10/24 07:14:59;;;;;;;27.30;14.60;;;;;;;11.01;100.00;99729.06;129918;1269;114989;-58
2023/10/24 07:18:01;;;;;;;24.10;14.00;;;;;;;11.08;100.00;99722.04;129572;1260;114739;-58
2023/10/24 07:21:03;;;;;;;27.10;15.60;;;;;;;11.13;100.00;99715.66;129882;1268;114815;-58
2023/10/24 07:24:06;;;;;;;23.20;12.60;;;;;;;11.26;100.00;99718.07;129771;1259;114930;-57
2023/10/24 07:27:11;;;;;;;28.30;14.60;;;;;;;11.39;100.00;99715.14;129672;1261;127614;-57
2023/10/24 07:30:13;;;;;;;26.00;14.40;;;;;;;11.53;99.97;99711.04;129865;1271;115160;-60
2023/10/24 07:33:15;;;;;;;25.60;15.20;;;;;;;11.63;99.66;99709.54;129999;1260;115336;-59
2023/10/24 07:36:17;;;;;;;26.00;14.10;;;;;;;11.69;99.20;99714.50;129911;1260;114830;-58
2023/10/24 07:39:20;;;;;;;24.90;14.90;;;;;;;11.72;99.34;99712.17;129806;1259;115183;-58
2023/10/24 07:42:22;;;;;;;30.50;15.20;;;;;;;11.76;98.82;99714.09;129794;1278;114658;-58
2023/10/24 07:45:24;;;;;;;28.60;14.60;;;;;;;11.80;98.90;99710.09;129837;1270;114788;-57
2023/10/24 07:48:27;;;;;;;30.10;14.70;;;;;;;11.84;99.18;99708.20;129775;1260;114686;-57
2023/10/24 07:51:31;;;;;;;27.80;14.20;;;;;;;11.90;99.05;99709.77;129927;1260;115151;-57
2023/10/24 07:54:34;;;;;;;25.20;15.30;;;;;;;11.96;98.57;99704.20;129571;1261;114782;-56
2023/10/24 07:57:36;;;;;;;26.20;15.30;;;;;;;12.04;98.64;99703.21;129996;1271;114732;-58
2023/10/24 08:00:39;;;;;;;34.00;16.10;;;;;;;12.09;98.38;99693.76;129742;1270;114682;-57
2023/10/24 08:03:42;;;;;;;31.10;15.70;;;;;;;12.15;98.77;99690.83;129857;1278;114830;-58
2023/10/24 08:06:44;;;;;;;29.60;14.90;;;;;;;12.24;98.82;99683.45;130051;1256;114805;-58
2023/10/24 08:09:46;;;;;;;30.80;14.90;;;;;;;12.29;98.18;99680.98;129828;1273;115304;-58
2023/10/24 08:12:49;;;;;;;27.60;15.20;;;;;;;12.34;98.31;99669.94;129843;1269;114708;-58
2023/10/24 08:15:52;;;;;;;22.90;13.50;;;;;;;12.43;98.35;99659.42;129827;1270;114679;-58
2023/10/24 08:18:54;;;;;;;26.60;15.80;;;;;;;12.50;97.62;99655.08;129913;1257;114795;-58
2023/10/24 08:21:56;;;;;;;26.10;15.00;;;;;;;12.59;98.09;99650.30;129520;1262;114785;-58
2023/10/24 08:24:59;;;;;;;26.30;14.10;;;;;;;12.67;97.76;99647.98;129722;1271;114868;-58
2023/10/24 08:28:01;;;;;;;24.50;14.80;;;;;;;12.76;97.66;99643.95;129792;1278;114709;-63
2023/10/24 08:31:03;;;;;;;26.60;14.80;;;;;;;12.86;97.71;99638.77;129757;1268;114791;-64
2023/10/24 08:34:05;;;;;;;26.80;14.60;;;;;;;12.94;96.98;99630.00;129501;1269;115346;-65
2023/10/24 08:37:08;;;;;;;29.50;16.20;;;;;;;12.98;96.19;99623.22;129757;1260;114761;-60
2023/10/24 08:40:11;;;;;;;23.20;14.80;;;;;;;13.01;96.31;99616.94;129807;1278;114787;-58
2023/10/24 08:43:15;;;;;;;22.30;13.90;;;;;;;13.08;96.55;99612.86;129901;1276;114728;-61
2023/10/24 08:46:18;;;;;;;28.40;15.20;;;;;;;13.15;95.84;99600.73;129326;1261;128672;-58
2023/10/24 08:49:20;;;;;;;23.20;13.20;;;;;;;13.25;96.13;99591.94;129839;1258;115519;-58
2023/10/24 08:52:22;;;;;;;22.70;13.90;;;;;;;13.38;95.81;99583.81;130003;1261;114789;-59
2023/10/24 08:55:26;;;;;;;25.80;14.00;;;;;;;13.50;95.51;99577.80;129934;1260;114702;-56
2023/10/24 08:58:28;;;;;;;30.60;14.90;;;;;;;13.64;95.88;99567.80;129951;1269;114720;-58
2023/10/24 09:01:35;;;;;;;23.30;12.90;;;;;;;13.82;96.50;99567.90;129656;1278;114786;-59
2023/10/24 09:04:39;;;;;;;24.20;13.10;;;;;;;13.93;95.20;99558.08;129887;1269;128832;-58
2023/10/24 09:07:41;;;;;;;25.00;14.10;;;;;;;14.02;94.47;99566.05;129907;1270;114779;-59
2023/10/24 09:10:43;;;;;;;26.80;13.40;;;;;;;14.05;93.77;99568.54;129802;1269;114683;-57
2023/10/24 09:13:45;;;;;;;19.20;12.60;;;;;;;14.11;94.40;99570.04;129923;1260;114824;-61
2023/10/24 09:16:58;;;;;;;23.70;12.00;;;;;;;14.17;94.01;99566.91;129691;1276;114882;-58
2023/10/24 09:20:02;;;;;;;18.40;11.30;;;;;;;14.19;93.49;99570.84;129639;1263;114787;-60
2023/10/24 09:23:11;;;;;;;20.60;11.40;;;;;;;14.21;93.42;99573.05;129864;1263;128863;-57
2023/10/24 09:26:13;;;;;;;21.00;12.10;;;;;;;14.21;92.78;99574.62;129615;1261;115231;-60
2023/10/24 09:29:17;;;;;;;25.10;13.40;;;;;;;14.22;93.15;99576.93;129864;1261;114809;-57
2023/10/24 09:32:20;;;;;;;24.50;12.10;;;;;;;14.25;93.14;99581.55;129656;1263;114968;-59
2023/10/24 09:35:22;;;;;;;23.10;12.50;;;;;;;14.31;93.03;99582.38;129933;1260;114733;-59
2023/10/24 09:38:25;;;;;;;18.60;12.20;;;;;;;14.39;93.45;99586.20;129884;1274;115045;-58
2023/10/24 09:41:28;;;;;;;21.00;12.00;;;;;;;14.49;93.05;99586.94;129915;1278;114721;-58
2023/10/24 09:44:30;;;;;;;26.70;13.70;;;;;;;14.56;93.48;99589.41;129687;1258;114766;-60
2023/10/24 09:47:33;;;;;;;21.90;12.90;;;;;;;14.71;93.79;99587.69;129671;1266;114732;-58
2023/10/24 09:50:38;;;;;;;24.00;12.00;;;;;;;14.81;92.82;99576.36;129848;1264;114722;-58
2023/10/24 09:53:41;;;;;;;24.70;13.00;;;;;;;14.84;91.87;99561.16;129598;1278;114756;-58
2023/10/24 09:56:43;;;;;;;24.20;13.40;;;;;;;14.92;92.16;99561.14;129645;1278;114790;-60
2023/10/24 09:59:59;;;;;;;25.80;13.80;;;;;;;15.00;91.71;99561.03;129966;1260;114751;-58
2023/10/24 10:03:03;;;;;;;25.50;14.10;;;;;;;15.08;91.42;99562.53;129591;1261;114826;-58
2023/10/24 10:06:08;;;;;;;20.30;12.90;;;;;;;15.15;91.70;99556.20;129567;1263;114843;-59
2023/10/24 10:09:11;;;;;;;;;;;;;;;15.25;91.50;99537.61;129654;1273;114697;-58
2023/10/24 10:12:14;;;;;;;26.30;12.50;;;;;;;15.29;91.07;99519.12;129798;1257;114706;-60
2023/10/24 10:15:38;;;;;;;25.60;12.60;;;;;;;15.33;90.87;99507.62;130017;1259;114771;-58
2023/10/24 10:19:03;;;;;;;25.40;11.40;;;;;;;15.38;90.80;99496.24;129615;1278;114766;-59
2023/10/24 10:22:26;;;;;;;23.80;13.20;;;;;;;15.43;89.43;99484.53;129841;1269;114702;-58
2023/10/24 10:25:51;;;;;;;22.40;11.40;;;;;;;15.45;90.05;99470.83;129777;1261;114683;-59
2023/10/24 10:29:21;;;;;;;21.20;12.50;;;;;;;15.55;90.68;99463.35;129866;1263;128543;-59
2023/10/24 10:32:35;;;;;;;24.30;11.90;;;;;;;15.70;91.02;99459.73;129501;1268;115433;-60
2023/10/24 10:35:49;;;;;;;17.10;10.40;;;;;;;15.85;90.50;99461.59;129754;1261;114924;-60
2023/10/24 10:38:54;;;;;;;17.00;10.30;;;;;;;15.92;89.28;99458.15;129828;1261;114791;-58
2023/10/24 10:41:57;;;;;;;17.40;10.60;;;;;;;15.98;90.02;99451.28;129662;1273;114790;-58
2023/10/24 10:45:23;;;;;;;22.50;11.60;;;;;;;16.09;90.09;99452.17;129832;1259;114703;-59
2023/10/24 10:48:29;;;;;;;18.70;10.60;;;;;;;16.15;89.39;99459.38;129814;1267;116427;-59
2023/10/24 10:51:33;;;;;;;15.20;10.30;;;;;;;16.17;89.11;99455.41;129600;1264;114735;-58
2023/10/24 10:55:07;;;;;;;20.10;10.30;;;;;;;16.19;88.46;99452.61;129443;1276;115144;-58
2023/10/24 10:58:11;;;;;;;15.80;9.00;;;;;;;16.20;88.66;99459.73;128961;1279;115184;-58
2023/10/24 11:01:52;;;;;;;20.90;10.40;;;;;;;16.18;88.02;99450.90;129021;1270;128536;-58
2023/10/24 11:04:55;;;;;;;21.60;11.40;;;;;;;16.19;88.32;99437.27;128408;1286;115345;-57
2023/10/24 11:07:58;;;;;;;18.30;11.50;;;;;;;16.20;87.67;99418.10;128682;1273;114907;-60
2023/10/24 11:11:00;;;;;;;16.80;9.90;;;;;;;16.22;87.53;99406.39;128740;1274;114896;-58
2023/10/24 11:14:15;;;;;;;23.00;11.40;;;;;;;16.25;87.33;99411.02;128728;1286;115053;-58
2023/10/24 11:17:18;;;;;;;23.90;10.50;;;;;;;16.33;88.05;99419.30;128414;1288;128319;-58
2023/10/24 11:20:22;;;;;;;22.70;11.20;;;;;;;16.44;88.10;99420.83;128536;1275;115201;-58
2023/10/24 11:23:26;;;;;;;15.70;8.40;;;;;;;16.56;88.46;99419.41;128419;1273;114810;-58
2023/10/24 11:26:28;;;;;;;14.50;9.40;;;;;;;16.67;87.40;99417.73;128233;1274;116306;-57
2023/10/24 11:29:31;;;;;;;16.50;9.10;;;;;;;16.74;87.10;99419.30;128675;1274;114841;-58
2023/10/24 11:32:34;;;;;;;14.00;8.00;;;;;;;16.79;86.95;99418.67;128553;1291;114891;-58
2023/10/24 11:35:36;;;;;;;16.90;8.90;;;;;;;16.86;87.00;99409.20;128980;1287;114846;-58
2023/10/24 11:38:38;;;;;;;18.40;9.30;;;;;;;16.90;86.11;99397.50;129142;1271;114862;-58
2023/10/24 11:41:42;;;;;;;24.80;10.10;;;;;;;16.93;86.34;99391.45;129217;1268;114869;-58
2023/10/24 11:44:44;;;;;;;15.00;9.10;;;;;;;16.96;86.42;99396.27;129663;1261;114738;-58
2023/10/24 11:47:46;;;;;;;18.80;8.40;;;;;;;17.01;85.95;99400.84;129720;1257;114803;-58
2023/10/24 11:50:49;;;;;;;15.70;8.80;;;;;;;17.05;85.78;99391.14;129670;1259;114784;-57
2023/10/24 11:54:02;;;;;;;12.10;7.90;;;;;;;17.06;85.58;99384.38;129837;1270;114725;-58
2023/10/24 11:57:05;;;;;;;16.60;7.80;;;;;;;17.10;86.18;99376.98;129540;1274;115173;-58
2023/10/24 12:00:17;;;;;;;15.30;7.90;;;;;;;17.17;86.37;99373.19;129905;1259;114766;-59
2023/10/24 12:03:20;;;;;;;13.80;7.70;;;;;;;17.26;85.95;99370.05;129993;1278;114750;-58
2023/10/24 12:06:32;;;;;;;17.10;8.10;;;;;;;17.36;86.26;99364.14;129631;1264;114808;-58
2023/10/24 12:09:35;;;;;;;13.30;7.70;;;;;;;17.42;85.93;99357.88;129751;1260;114818;-58
2023/10/24 12:12:41;;;;;;;13.30;7.40;;;;;;;17.49;86.18;99348.84;129627;1260;116140;-59
2023/10/24 12:15:43;;;;;;;21.00;7.50;;;;;;;17.56;85.76;99342.76;129564;1264;114798;-57
2023/10/24 12:18:46;;;;;;;18.20;9.80;;;;;;;17.58;85.63;99332.76;129691;1273;114835;-58
2023/10/24 12:21:49;;;;;;;14.50;7.30;;;;;;;17.62;85.44;99328.67;129797;1278;114724;-58
2023/10/24 12:24:51;;;;;;;12.30;7.50;;;;;;;17.69;85.79;99323.32;129861;1257;114664;-58
2023/10/24 12:27:53;;;;;;;13.40;7.20;;;;;;;17.75;85.48;99314.52;129615;1278;129085;-59
2023/10/24 12:30:56;;;;;;;14.70;7.70;;;;;;;17.76;85.11;99308.14;130037;1260;115211;-58
2023/10/24 12:34:03;;;;;;;10.20;6.90;;;;;;;17.77;84.85;99305.14;129740;1259;114802;-59
2023/10/24 12:37:06;;;;;;;12.20;7.00;;;;;;;17.76;84.58;99303.98;129853;1259;114807;-58
2023/10/24 12:40:09;;;;;;;13.30;7.50;;;;;;;17.76;84.35;99299.27;129759;1270;114839;-59
2023/10/24 12:43:12;;;;;;;17.80;6.50;;;;;;;17.76;84.25;99299.33;129839;1271;114756;-59
2023/10/24 12:46:14;;;;;;;11.50;5.80;;;;;;;17.73;83.66;99294.17;129899;1278;114734;-57
2023/10/24 12:49:17;;;;;;;13.90;6.40;;;;;;;17.70;83.65;99292.67;129782;1259;114699;-57
2023/10/24 12:52:20;;;;;;;13.10;5.60;;;;;;;17.68;83.60;99282.02;129579;1260;114797;-57
2023/10/24 12:55:24;;;;;;;11.80;6.20;;;;;;;17.65;83.29;99279.63;129948;1278;114753;-57
2023/10/24 12:58:26;;;;;;;11.70;6.20;;;;;;;17.60;83.27;99273.58;130071;1257;114727;-58
2023/10/24 13:01:29;;;;;;;9.60;5.50;;;;;;;17.58;83.69;99273.35;129944;1268;115182;-58
2023/10/24 13:04:32;;;;;;;17.40;6.40;;;;;;;17.57;83.47;99267.50;130065;1270;114705;-58
2023/10/24 13:07:34;;;;;;;8.70;5.10;;;;;;;17.58;83.85;99260.98;130168;1259;115444;-58
2023/10/24 13:10:37;;;;;;;12.00;5.00;;;;;;;17.55;83.05;99250.06;129921;1256;114773;-58
2023/10/24 13:13:42;;;;;;;7.20;4.70;;;;;;;17.48;82.87;99244.36;130247;1256;114725;-58
2023/10/24 13:16:50;;;;;;;10.20;5.10;;;;;;;17.40;82.68;99236.98;130118;1278;115086;-64
2023/10/24 13:19:52;;;;;;;8.30;4.80;;;;;;;17.36;83.20;99233.05;130175;1259;128263;-66
2023/10/24 13:22:55;;;;;;;11.10;5.40;;;;;;;17.34;83.34;99229.27;130026;1271;114827;-60
2023/10/24 13:25:57;;;;;;;18.10;5.70;;;;;;;17.35;83.55;99222.39;130065;1278;114690;-59
2023/10/24 13:29:01;;;;;;;11.70;5.10;;;;;;;17.32;83.50;99218.23;129652;1257;114830;-60
2023/10/24 13:32:04;;;;;;;14.30;6.30;;;;;;;17.27;83.54;99205.74;129841;1278;115244;-58
2023/10/24 13:35:06;;;;;;;9.40;4.70;;;;;;;17.27;83.79;99196.71;129884;1256;114808;-60
2023/10/24 13:38:09;;;;;;;12.80;5.90;;;;;;;17.24;83.51;99196.26;129938;1259;114857;-61
2023/10/24 13:41:13;;;;;;;12.80;5.80;;;;;;;17.19;83.61;99197.67;129610;1262;115315;-58
2023/10/24 13:44:16;;;;;;;22.50;6.80;;;;;;;17.14;83.60;99198.70;129470;1264;114859;-59
2023/10/24 13:47:18;;;;;;;13.30;7.20;;;;;;;17.10;84.02;99199.42;129660;1279;114866;-58
2023/10/24 13:50:20;;;;;;;17.30;7.20;;;;;;;17.07;84.04;99198.58;129551;1261;114728;-63